LFOH/LEH METAR and TAF weather

Enter ICAO airport designator
Station Type Date Time Source
LFOH METAR 2024/02/26 17:00 UTC NOAA

LFOH 261700Z AUTO 03027G38KT 9999 -DZ BKN022 OVC029 07/04 Q1008 TEMPO 3000 RA OVC007 OVC013TCU


Station Type Date Time Source
LFOH Decoded METAR 2024/02/26 17:00 UTC NOAA

La Heve, France (LFOH) 49-31N 000-04E 103M
Feb 26, 2024 - 12:00 PM EST / 2024.02.26 1700 UTC
Wind: from the NNE (030 degrees) at 31 MPH (27 KT) gusting to 44 MPH (38 KT):0
Visibility: greater than 7 mile(s):0
Sky conditions: overcast
Weather: light drizzle; Towering cumulus clouds observed
Temperature: 44 F (7 C)
Dew Point: 39 F (4 C)
Relative Humidity: 81%
Pressure (altimeter): 29.77 in. Hg (1008 hPa)
ob: LFOH 261700Z AUTO 03027G38KT 9999 -DZ BKN022 OVC029 07/04 Q1008 TEMPO 3000 RA OVC007 OVC013TCU
cycle: 17

Station Type Date Time Source
LFOH TAF 2024/02/26 12:21 UTC NOAA